KBHC

Details ICAO KBHC
Name BAXLEY MUNI
Region United States
Timezone America/New_York (UTC-4.0)
Plans Departing 1
Arriving 0
Stats Elevation 201 ft / 61 m (AMSL)
Location 31.713842° -82.393786°
Runways 1
Magnetic Variation 6.224° W
Sunrise 2018-05-23 10:29:43 UTC / 2018-05-23 06:29:43 Local
Sunset 2018-05-24 00:25:50 UTC / 2018-05-23 20:25:50 Local
Advertisement - Login to hide

Runways

ID Width Length Bearing (true) Bearing (mag) Surface Threshold Offset Overrun Length
08 75 ft / 23 m 4,997 ft / 1,523 m 74.80° 81.02° Asphalt 0 ft / 0 m 0 ft / 0 m
26 75 ft / 23 m 4,997 ft / 1,523 m 254.81° 261.03° Asphalt 0 ft / 0 m 0 ft / 0 m

Map

Weather


0- 5 10 15 20 25 30 35+ Temperature / ° C

Clouds and Precipitation
Forecast for 2018-05-24 00:00 UTC. Updated 6 hours ago

Ground ~20,000 ft ~40,000 ft Winds

METAR

KBHC 240435Z AUTO 00000KT 10SM CLR 21/21 A3008 RMK AO2

TAF

Not found

Frequencies

Unicom 122.80 MHz CTAF/UNICOM
Warning: Do not use this data for real-world aviation or navigation. No guarantee of current accuracy is given.